createdAt,value
2018-12-29T00:00:09.357Z,95414.61
2018-12-29T00:02:35.381Z,95416.66
2018-12-29T00:05:01.342Z,95411.23
2018-12-29T00:07:27.335Z,95416.14
2018-12-29T00:09:53.339Z,95414.00
2018-12-29T00:12:19.307Z,95421.45
2018-12-29T00:14:45.281Z,95417.16
2018-12-29T00:17:11.292Z,95419.41
2018-12-29T00:19:37.261Z,95425.06
2018-12-29T00:22:03.250Z,95418.41
2018-12-29T00:24:29.261Z,95423.51
2018-12-29T00:26:55.252Z,95417.66
2018-12-29T00:29:21.239Z,95423.51
2018-12-29T00:31:47.245Z,95429.64
2018-12-29T00:34:13.225Z,95411.61
2018-12-29T00:36:39.223Z,95411.12
2018-12-29T00:39:05.245Z,95412.86
2018-12-29T00:41:31.207Z,95416.86
2018-12-29T00:43:57.201Z,95413.28
2018-12-29T00:46:23.256Z,95427.92
2018-12-29T00:48:49.273Z,95428.41
2018-12-29T00:51:15.268Z,95432.83
2018-12-29T00:53:41.258Z,95435.56
2018-12-29T00:56:07.296Z,95432.91
2018-12-29T00:58:33.284Z,95432.48
2018-12-29T01:00:59.285Z,95409.37
2018-12-29T01:03:25.301Z,95428.11
2018-12-29T01:05:51.300Z,95430.66
2018-12-29T01:08:17.293Z,95434.23
2018-12-29T01:10:43.330Z,95433.63
2018-12-29T01:13:09.344Z,95431.38
2018-12-29T01:15:35.377Z,95415.94
2018-12-29T01:18:01.345Z,95445.72
2018-12-29T01:20:27.332Z,95443.47
2018-12-29T01:22:53.363Z,95435.07
2018-12-29T01:25:19.331Z,95431.08
2018-12-29T01:27:45.320Z,95443.97
2018-12-29T01:30:11.337Z,95440.81
2018-12-29T01:32:37.301Z,95428.61
2018-12-29T01:35:03.291Z,95431.69
2018-12-29T01:37:29.329Z,95416.52
2018-12-29T01:39:55.326Z,95434.77
2018-12-29T01:42:21.301Z,95431.69
2018-12-29T01:44:47.303Z,95420.51
2018-12-29T01:47:13.275Z,95413.05
2018-12-29T01:49:39.252Z,95413.97
2018-12-29T01:52:05.265Z,95413.05
2018-12-29T01:54:31.247Z,95409.56
2018-12-29T01:56:57.215Z,95410.89
2018-12-29T01:59:23.243Z,95406.81
2018-12-29T02:01:49.313Z,95398.83
2018-12-29T02:04:15.327Z,95416.13
2018-12-29T02:06:41.309Z,95405.56
2018-12-29T02:09:07.275Z,95404.66
2018-12-29T02:11:33.307Z,95403.40
2018-12-29T02:13:59.271Z,95401.69
2018-12-29T02:16:25.258Z,95399.41
2018-12-29T02:18:51.248Z,95401.16
2018-12-29T02:21:17.277Z,95400.85
2018-12-29T02:23:43.375Z,95403.09
2018-12-29T02:26:09.408Z,95403.82
2018-12-29T02:28:35.397Z,95410.89
2018-12-29T02:31:01.373Z,95413.66
2018-12-29T02:33:27.417Z,95409.25
2018-12-29T02:35:53.397Z,95403.40
2018-12-29T02:38:19.372Z,95411.50
2018-12-29T02:40:45.408Z,95407.01
2018-12-29T02:43:11.436Z,95398.08
2018-12-29T02:45:37.408Z,95393.17
2018-12-29T02:48:03.437Z,95390.84
2018-12-29T02:50:29.419Z,95392.86
2018-12-29T02:52:55.451Z,95380.05
2018-12-29T02:55:21.456Z,95391.53
2018-12-29T02:57:47.444Z,95399.02
2018-12-29T03:00:13.457Z,95395.61
2018-12-29T03:02:39.439Z,95393.28
2018-12-29T03:05:05.417Z,95389.70
2018-12-29T03:07:31.462Z,95386.70
2018-12-29T03:09:57.475Z,95385.19
2018-12-29T03:12:23.474Z,95387.55
2018-12-29T03:14:49.440Z,95378.84
2018-12-29T03:17:15.463Z,95389.90
2018-12-29T03:19:41.434Z,95387.55
2018-12-29T03:22:07.473Z,95377.81
2018-12-29T03:24:33.477Z,95372.80
2018-12-29T03:26:59.458Z,95369.94
2018-12-29T03:29:25.446Z,95372.19
2018-12-29T03:31:51.478Z,95378.53
2018-12-29T03:34:17.510Z,95372.48
2018-12-29T03:36:43.569Z,95387.05
2018-12-29T03:39:09.560Z,95383.44
2018-12-29T03:41:35.524Z,95388.38
2018-12-29T03:44:01.540Z,95387.43
2018-12-29T03:46:27.574Z,95387.55
2018-12-29T03:48:53.542Z,95387.63
2018-12-29T03:51:19.501Z,95385.49
2018-12-29T03:53:45.526Z,95390.28
2018-12-29T03:56:11.509Z,95386.82
2018-12-29T03:58:37.504Z,95392.14
2018-12-29T04:01:03.525Z,95389.14
2018-12-29T04:03:29.499Z,95396.55
2018-12-29T04:05:55.509Z,95386.21
2018-12-29T04:08:21.552Z,95395.22
2018-12-29T04:10:47.515Z,95395.53
2018-12-29T04:13:13.602Z,95393.17
2018-12-29T04:15:39.617Z,95395.53
2018-12-29T04:18:05.646Z,95391.12
2018-12-29T04:20:31.647Z,95393.47
2018-12-29T04:22:57.614Z,95400.55
2018-12-29T04:25:23.626Z,95396.02
2018-12-29T04:27:49.603Z,95389.03
2018-12-29T04:30:15.615Z,95396.44
2018-12-29T04:32:41.619Z,95397.88
2018-12-29T04:35:07.587Z,95384.58
2018-12-29T04:37:33.579Z,95395.53
2018-12-29T04:39:59.613Z,95413.85
2018-12-29T04:42:25.579Z,95404.73
2018-12-29T04:44:51.571Z,95409.44
2018-12-29T04:47:17.594Z,95419.17
2018-12-29T04:49:43.695Z,95419.67
2018-12-29T04:52:09.670Z,95426.75
2018-12-29T04:54:35.720Z,95425.41
2018-12-29T04:57:01.700Z,95428.49
2018-12-29T04:59:27.686Z,95427.66
2018-12-29T05:01:53.716Z,95440.86
2018-12-29T05:04:19.687Z,95444.27
2018-12-29T05:06:45.649Z,95447.51
2018-12-29T05:09:11.661Z,95439.14
2018-12-29T05:11:37.637Z,95451.61
2018-12-29T05:14:03.604Z,95453.86
2018-12-29T05:16:29.623Z,95449.03
2018-12-29T05:18:55.647Z,95437.39
2018-12-29T05:21:21.625Z,95455.61
2018-12-29T05:23:47.618Z,95448.95
2018-12-29T05:26:13.638Z,95453.86
2018-12-29T05:28:39.637Z,95449.86
2018-12-29T05:31:05.617Z,95456.52
2018-12-29T05:33:31.634Z,95436.37
2018-12-29T05:35:57.638Z,95436.37
2018-12-29T05:38:23.602Z,95442.72
2018-12-29T05:40:49.623Z,95440.47
2018-12-29T05:43:15.615Z,95445.45
2018-12-29T05:45:41.617Z,95429.41
2018-12-29T05:48:07.623Z,95445.45
2018-12-29T05:50:33.620Z,95455.69
2018-12-29T05:52:59.593Z,95448.53
2018-12-29T05:55:25.630Z,95429.83
2018-12-29T05:57:51.605Z,95457.85
2018-12-29T06:00:17.608Z,95454.50
2018-12-29T06:02:43.614Z,95464.31
2018-12-29T06:05:09.604Z,95464.92
2018-12-29T06:07:35.589Z,95471.47
2018-12-29T06:10:01.607Z,95457.66
2018-12-29T06:12:27.573Z,95477.20
2018-12-29T06:14:53.645Z,95476.71
2018-12-29T06:17:19.584Z,95471.47
2018-12-29T06:19:45.548Z,95478.23
2018-12-29T06:22:11.526Z,95477.02
2018-12-29T06:24:37.567Z,95474.05
2018-12-29T06:27:03.552Z,95482.87
2018-12-29T06:29:29.560Z,95482.76
2018-12-29T06:31:55.606Z,95483.36
2018-12-29T06:34:21.591Z,95490.33
2018-12-29T06:36:47.589Z,95495.57
2018-12-29T06:39:13.608Z,95507.97
2018-12-29T06:41:39.606Z,95515.61
2018-12-29T06:44:05.595Z,95513.29
2018-12-29T06:46:35.125Z,95524.84
2018-12-29T06:48:57.599Z,95519.00
2018-12-29T06:51:23.574Z,95520.44
2018-12-29T06:53:49.612Z,95516.94
2018-12-29T06:56:15.598Z,95500.06
2018-12-29T06:58:41.583Z,95507.55
2018-12-29T07:01:07.599Z,95511.54
2018-12-29T07:03:33.579Z,95503.63
2018-12-29T07:05:59.592Z,95511.63
2018-12-29T07:08:25.573Z,95508.05
2018-12-29T07:10:51.539Z,95503.86
2018-12-29T07:13:17.654Z,95502.64
2018-12-29T07:15:43.625Z,95510.94
2018-12-29T07:18:09.653Z,95505.69
2018-12-29T07:20:35.680Z,95502.11
2018-12-29T07:23:01.664Z,95506.22
2018-12-29T07:25:28.254Z,95511.96
2018-12-29T07:27:54.251Z,95500.82
2018-12-29T07:30:20.228Z,95494.85
2018-12-29T07:32:46.281Z,95502.95
2018-12-29T07:35:14.253Z,95498.65
2018-12-29T07:37:40.234Z,95501.70
2018-12-29T07:40:06.254Z,95492.19
2018-12-29T07:42:32.264Z,95497.70
2018-12-29T07:44:58.235Z,95497.31
2018-12-29T07:47:24.282Z,95501.62
2018-12-29T07:49:50.248Z,95494.66
2018-12-29T07:52:16.267Z,95514.09
2018-12-29T07:54:42.281Z,95505.80
2018-12-29T07:57:08.274Z,95511.77
2018-12-29T07:59:34.246Z,95512.77
2018-12-29T08:02:00.279Z,95520.75
2018-12-29T08:04:26.249Z,95518.92
2018-12-29T08:06:52.232Z,95524.24
2018-12-29T08:09:18.247Z,95513.91
2018-12-29T08:11:44.247Z,95527.73
2018-12-29T08:14:10.245Z,95524.73
2018-12-29T08:16:36.265Z,95538.96
2018-12-29T08:19:02.233Z,95533.06
2018-12-29T08:21:28.245Z,95528.55
2018-12-29T08:23:54.481Z,95544.09
2018-12-29T08:26:20.497Z,95543.19
2018-12-29T08:28:46.555Z,95538.20
2018-12-29T08:31:12.582Z,95551.94
2018-12-29T08:33:39.925Z,95547.22
2018-12-29T08:36:05.893Z,95550.48
2018-12-29T08:38:31.973Z,95547.56
2018-12-29T08:40:57.925Z,95561.67
2018-12-29T08:43:34.494Z,95558.52
2018-12-29T08:46:01.394Z,95554.59
2018-12-29T08:48:27.722Z,95564.52
2018-12-29T08:50:57.119Z,95560.22
2018-12-29T08:53:23.097Z,95566.04
2018-12-29T08:55:49.087Z,95566.15
2018-12-29T08:58:15.115Z,95569.31
2018-12-29T09:00:41.093Z,95564.06
2018-12-29T09:03:08.069Z,95567.56
2018-12-29T09:05:35.224Z,95567.67
2018-12-29T09:08:01.204Z,95558.16
2018-12-29T09:10:28.290Z,95567.56
2018-12-29T09:12:54.654Z,95570.41
2018-12-29T09:15:20.655Z,95569.80
2018-12-29T09:17:46.664Z,95575.31
2018-12-29T09:20:26.933Z,95577.90
2018-12-29T09:22:52.931Z,95575.47
2018-12-29T09:25:19.388Z,95564.29
2018-12-29T09:27:53.049Z,95572.47
2018-12-29T09:30:19.080Z,95563.07
2018-12-29T09:32:45.070Z,95577.71
2018-12-29T09:35:12.347Z,95586.80
2018-12-29T09:37:38.355Z,95569.91
2018-12-29T09:40:04.410Z,95579.84
2018-12-29T09:42:30.572Z,95577.60
2018-12-29T09:44:58.092Z,95578.86
2018-12-29T09:47:24.118Z,95579.95
2018-12-29T09:49:50.113Z,95577.78
2018-12-29T09:52:16.093Z,95573.80
2018-12-29T09:54:42.162Z,95574.22
2018-12-29T09:57:08.127Z,95573.91
2018-12-29T09:59:34.113Z,95577.30
2018-12-29T10:02:00.151Z,95562.84
2018-12-29T10:04:26.635Z,95563.88
2018-12-29T10:06:53.382Z,95559.68
2018-12-29T10:09:20.242Z,95562.42
2018-12-29T10:11:46.962Z,95568.66
2018-12-29T10:14:13.789Z,95560.67
2018-12-29T10:16:40.453Z,95555.88
2018-12-29T10:19:06.982Z,95552.42
2018-12-29T10:21:33.835Z,95552.47
2018-12-29T10:24:00.261Z,95548.05
2018-12-29T10:26:26.797Z,95546.22
2018-12-29T10:28:54.155Z,95546.88
2018-12-29T10:31:20.671Z,95542.87
2018-12-29T10:33:47.090Z,95541.89
2018-12-29T10:36:13.660Z,95552.42
2018-12-29T10:38:39.641Z,95555.09
2018-12-29T10:41:05.608Z,95551.09
2018-12-29T10:43:31.836Z,95544.86
2018-12-29T10:45:58.166Z,95542.80
2018-12-29T10:48:24.478Z,95548.63
2018-12-29T10:50:51.960Z,95542.84
2018-12-29T10:53:18.080Z,95552.12
2018-12-29T10:55:44.487Z,95538.80
2018-12-29T10:58:11.259Z,95537.63
2018-12-29T11:00:37.898Z,95541.05
2018-12-29T11:03:04.743Z,95535.42
2018-12-29T11:05:31.586Z,95541.55
2018-12-29T11:07:57.634Z,95534.89
2018-12-29T11:10:23.622Z,95548.28
2018-12-29T11:12:50.003Z,95541.63
2018-12-29T11:15:16.627Z,95541.47
2018-12-29T11:17:42.337Z,95554.94
2018-12-29T11:20:07.979Z,95546.69
2018-12-29T11:22:34.024Z,95544.13
2018-12-29T11:25:00.018Z,95543.80
2018-12-29T11:27:26.049Z,95551.63
2018-12-29T11:29:52.024Z,95553.91
2018-12-29T11:32:18.029Z,95554.75
2018-12-29T11:34:44.063Z,95556.20
2018-12-29T11:37:10.043Z,95538.89
2018-12-29T11:39:36.066Z,95553.12
2018-12-29T11:42:02.059Z,95555.28
2018-12-29T11:44:28.035Z,95554.98
2018-12-29T11:46:54.048Z,95554.14
2018-12-29T11:49:20.119Z,95565.02
2018-12-29T11:51:46.107Z,95563.77
2018-12-29T11:54:12.150Z,95569.09
2018-12-29T11:56:38.331Z,95573.08
2018-12-29T11:59:04.307Z,95570.50
2018-12-29T12:01:30.675Z,95569.28
2018-12-29T12:03:56.637Z,95567.30
2018-12-29T12:06:22.623Z,95570.15
2018-12-29T12:08:48.753Z,95570.23
2018-12-29T12:11:14.738Z,95570.56
2018-12-29T12:13:40.742Z,95567.98
2018-12-29T12:16:06.761Z,95574.22
2018-12-29T12:18:32.746Z,95569.01
2018-12-29T12:20:58.707Z,95580.98
2018-12-29T12:23:24.721Z,95577.72
2018-12-29T12:25:50.696Z,95577.83
2018-12-29T12:28:16.697Z,95582.13
2018-12-29T12:30:42.715Z,95587.33
2018-12-29T12:33:08.690Z,95580.98
2018-12-29T12:35:34.668Z,95585.89
2018-12-29T12:38:00.683Z,95589.89
2018-12-29T12:40:26.677Z,95592.66
2018-12-29T12:42:52.648Z,95600.12
2018-12-29T12:45:18.662Z,95589.52
2018-12-29T12:47:44.630Z,95600.27
2018-12-29T12:50:10.666Z,95590.61
2018-12-29T12:52:36.725Z,95595.94
2018-12-29T12:55:02.697Z,95597.45
2018-12-29T12:57:28.738Z,95603.20
2018-12-29T12:59:54.696Z,95593.54
2018-12-29T13:02:20.681Z,95600.84
2018-12-29T13:04:46.656Z,95597.88
2018-12-29T13:07:12.683Z,95605.86
2018-12-29T13:09:38.672Z,95606.85
2018-12-29T13:12:04.699Z,95613.51
2018-12-29T13:14:30.776Z,95605.44
2018-12-29T13:16:56.762Z,95611.68
2018-12-29T13:19:28.517Z,95618.00
2018-12-29T13:21:48.794Z,95618.00
2018-12-29T13:24:14.770Z,95628.75
2018-12-29T13:26:40.781Z,95630.09
2018-12-29T13:29:06.787Z,95629.33
2018-12-29T13:31:32.927Z,95628.10
2018-12-29T13:33:58.822Z,95634.34
2018-12-29T13:36:24.777Z,95628.70
2018-12-29T13:38:50.758Z,95628.29
2018-12-29T13:41:16.781Z,95631.45
2018-12-29T13:43:42.766Z,95643.92
2018-12-29T13:46:08.732Z,95640.87
2018-12-29T13:48:34.758Z,95640.03
2018-12-29T13:51:00.723Z,95646.38
2018-12-29T13:53:26.729Z,95654.37
2018-12-29T13:55:52.738Z,95651.70
2018-12-29T13:58:18.736Z,95660.19
2018-12-29T14:00:44.726Z,95660.68
2018-12-29T14:03:10.754Z,95663.03
2018-12-29T14:05:36.731Z,95663.34
2018-12-29T14:08:02.748Z,95660.79
2018-12-29T14:10:28.748Z,95664.86
2018-12-29T14:12:54.734Z,95664.05
2018-12-29T14:15:20.754Z,95671.63
2018-12-29T14:17:46.734Z,95672.53
2018-12-29T14:20:12.769Z,95672.84
2018-12-29T14:22:38.743Z,95671.70
2018-12-29T14:25:04.750Z,95677.94
2018-12-29T14:27:30.760Z,95672.61
2018-12-29T14:29:56.736Z,95690.86
2018-12-29T14:32:22.701Z,95690.02
2018-12-29T14:35:04.800Z,95693.10
2018-12-29T14:37:30.778Z,95691.66
2018-12-29T14:39:57.026Z,95696.56
2018-12-29T14:42:22.991Z,95694.33
2018-12-29T14:44:50.510Z,95704.48
2018-12-29T14:47:16.539Z,95706.23
2018-12-29T14:49:42.510Z,95711.21
2018-12-29T14:52:08.477Z,95712.77
2018-12-29T14:54:34.499Z,95709.38
2018-12-29T14:57:00.487Z,95713.48
2018-12-29T14:59:26.468Z,95706.72
2018-12-29T15:01:52.493Z,95717.30
2018-12-29T15:04:18.483Z,95722.27
2018-12-29T15:06:44.478Z,95719.19
2018-12-29T15:09:11.830Z,95722.38
2018-12-29T15:11:36.506Z,95712.54
2018-12-29T15:14:02.487Z,95721.67
2018-12-29T15:16:28.542Z,95721.86
2018-12-29T15:18:54.537Z,95727.29
2018-12-29T15:21:20.526Z,95729.84
2018-12-29T15:23:46.555Z,95727.52
2018-12-29T15:26:12.763Z,95735.51
2018-12-29T15:28:38.795Z,95735.59
2018-12-29T15:31:04.780Z,95736.91
2018-12-29T15:33:30.808Z,95742.23
2018-12-29T15:35:57.163Z,95742.77
2018-12-29T15:38:23.928Z,95744.90
2018-12-29T15:40:50.878Z,95751.55
2018-12-29T15:43:16.993Z,95748.89
2018-12-29T15:45:42.966Z,95758.21
2018-12-29T15:48:08.993Z,95762.63
2018-12-29T15:50:35.005Z,95763.64
2018-12-29T15:53:00.983Z,95768.13
2018-12-29T15:55:27.033Z,95768.96
2018-12-29T15:57:53.055Z,95770.30
2018-12-29T16:00:19.033Z,95770.11
2018-12-29T16:02:45.090Z,95764.97
2018-12-29T16:05:11.058Z,95777.26
2018-12-29T16:07:37.071Z,95774.29
2018-12-29T16:10:03.412Z,95775.02
2018-12-29T16:12:29.420Z,95786.16
2018-12-29T16:14:56.825Z,95781.25
2018-12-29T16:17:22.855Z,95787.91
2018-12-29T16:19:49.066Z,95783.48
2018-12-29T16:22:15.081Z,95783.73
2018-12-29T16:24:41.090Z,95784.98
2018-12-29T16:27:07.127Z,95774.52
2018-12-29T16:29:33.392Z,95777.00
2018-12-29T16:31:59.510Z,95779.98
2018-12-29T16:34:25.478Z,95785.30
2018-12-29T16:36:51.512Z,95781.80
2018-12-29T16:39:17.536Z,95785.72
2018-12-29T16:41:43.522Z,95790.20
2018-12-29T16:44:09.524Z,95786.70
2018-12-29T16:46:35.537Z,95797.77
2018-12-29T16:49:06.739Z,95794.38
2018-12-29T16:51:27.493Z,95800.20
2018-12-29T16:53:53.509Z,95807.27
2018-12-29T16:56:19.473Z,95802.86
2018-12-29T16:58:45.459Z,95808.60
2018-12-29T17:01:11.556Z,95811.79
2018-12-29T17:03:37.536Z,95814.03
2018-12-29T17:06:03.501Z,95810.04
2018-12-29T17:08:29.512Z,95811.38
2018-12-29T17:10:55.494Z,95818.03
2018-12-29T17:13:21.482Z,95816.04
2018-12-29T17:15:47.498Z,95811.87
2018-12-29T17:18:13.466Z,95815.44
2018-12-29T17:20:39.450Z,95811.13
2018-12-29T17:23:05.474Z,95815.55
2018-12-29T17:25:31.499Z,95807.45
2018-12-29T17:27:57.475Z,95813.38
2018-12-29T17:30:23.462Z,95809.49
2018-12-29T17:32:49.480Z,95814.21
2018-12-29T17:35:15.462Z,95808.55
2018-12-29T17:37:41.456Z,95810.41
2018-12-29T17:40:07.505Z,95800.67
2018-12-29T17:42:33.487Z,95805.58
2018-12-29T17:44:59.480Z,95809.98
2018-12-29T17:47:26.831Z,95803.02
2018-12-29T17:49:51.493Z,95804.19
2018-12-29T17:52:17.488Z,95802.97
2018-12-29T17:54:43.519Z,95803.56
2018-12-29T17:57:09.495Z,95806.72
2018-12-29T17:59:35.494Z,95812.05
2018-12-29T18:02:01.510Z,95813.80
2018-12-29T18:04:27.516Z,95810.12
2018-12-29T18:06:53.485Z,95814.11
2018-12-29T18:09:19.547Z,95807.27
2018-12-29T18:11:45.524Z,95810.35
2018-12-29T18:14:11.602Z,95804.84
2018-12-29T18:16:37.673Z,95804.17
2018-12-29T18:19:04.383Z,95806.83
2018-12-29T18:21:30.411Z,95808.16
2018-12-29T18:23:56.643Z,95801.33
2018-12-29T18:26:22.655Z,95810.53
2018-12-29T18:28:48.650Z,95807.98
2018-12-29T18:31:14.671Z,95814.03
2018-12-29T18:33:40.755Z,95813.86
2018-12-29T18:36:06.720Z,95815.16
2018-12-29T18:38:32.815Z,95817.35
2018-12-29T18:40:58.734Z,95814.02
2018-12-29T18:43:24.713Z,95817.63
2018-12-29T18:45:50.774Z,95810.37
2018-12-29T18:48:16.806Z,95812.61
2018-12-29T18:50:42.772Z,95807.83
2018-12-29T18:53:08.921Z,95809.48
2018-12-29T18:55:34.912Z,95805.35
2018-12-29T18:58:00.894Z,95806.73
2018-12-29T19:00:26.939Z,95808.75
2018-12-29T19:02:52.917Z,95811.52
2018-12-29T19:05:18.954Z,95814.36
2018-12-29T19:07:44.918Z,95815.22
2018-12-29T19:10:10.925Z,95816.05
2018-12-29T19:12:37.037Z,95819.81
2018-12-29T19:15:03.016Z,95818.61
2018-12-29T19:17:28.976Z,95818.80
2018-12-29T19:19:55.016Z,95819.14
2018-12-29T19:22:21.012Z,95822.95
2018-12-29T19:24:46.981Z,95814.96
2018-12-29T19:27:13.007Z,95816.91
2018-12-29T19:29:38.972Z,95823.98
2018-12-29T19:32:04.963Z,95821.44
2018-12-29T19:34:31.046Z,95825.32
2018-12-29T19:36:57.025Z,95822.84
2018-12-29T19:39:22.997Z,95819.38
2018-12-29T19:41:54.877Z,95829.50
2018-12-29T19:44:15.002Z,95827.62
2018-12-29T19:46:40.994Z,95824.46
2018-12-29T19:49:07.050Z,95829.91
2018-12-29T19:51:33.062Z,95834.93
2018-12-29T19:53:59.035Z,95830.20
2018-12-29T19:56:25.144Z,95832.87
2018-12-29T19:58:51.053Z,95831.85
2018-12-29T20:01:17.056Z,95829.91
2018-12-29T20:03:43.072Z,95828.33
2018-12-29T20:06:11.327Z,95832.81
2018-12-29T20:08:35.062Z,95834.88
2018-12-29T20:11:01.777Z,95836.21
2018-12-29T20:13:28.853Z,95831.95
2018-12-29T20:15:53.781Z,95825.84
2018-12-29T20:18:19.809Z,95825.45
2018-12-29T20:20:45.790Z,95832.32
2018-12-29T20:23:11.767Z,95830.39
2018-12-29T20:25:37.797Z,95828.64
2018-12-29T20:28:03.785Z,95833.16
2018-12-29T20:30:29.760Z,95828.09
2018-12-29T20:32:59.037Z,95823.19
2018-12-29T20:35:21.802Z,95821.02
2018-12-29T20:37:47.974Z,95827.07
2018-12-29T20:40:13.784Z,95830.75
2018-12-29T20:42:39.784Z,95830.39
2018-12-29T20:45:06.101Z,95839.29
2018-12-29T20:47:32.091Z,95836.50
2018-12-29T20:50:00.012Z,95842.92
2018-12-29T20:52:26.028Z,95839.89
2018-12-29T20:54:52.189Z,95838.64
2018-12-29T20:57:18.164Z,95841.30
2018-12-29T20:59:44.135Z,95842.42
2018-12-29T21:02:12.127Z,95844.67
2018-12-29T21:04:36.185Z,95855.40
2018-12-29T21:07:02.589Z,95856.05
2018-12-29T21:09:28.609Z,95850.98
2018-12-29T21:11:54.602Z,95851.14
2018-12-29T21:14:20.590Z,95847.75
2018-12-29T21:16:49.924Z,95843.34
2018-12-29T21:19:16.641Z,95846.23
2018-12-29T21:21:42.653Z,95851.45
2018-12-29T21:24:13.661Z,95847.16
2018-12-29T21:26:39.635Z,95843.66
2018-12-29T21:29:11.631Z,95856.13
2018-12-29T21:31:38.364Z,95851.45
2018-12-29T21:34:06.716Z,95850.55
2018-12-29T21:36:37.301Z,95849.14
2018-12-29T21:39:03.332Z,95845.82
2018-12-29T21:41:29.329Z,95840.73
2018-12-29T21:43:55.303Z,95838.06
2018-12-29T21:46:21.328Z,95832.69
2018-12-29T21:48:47.307Z,95832.58
2018-12-29T21:51:13.285Z,95839.16
2018-12-29T21:53:39.324Z,95827.78
2018-12-29T21:56:05.294Z,95822.53
2018-12-29T21:58:31.280Z,95821.52
2018-12-29T22:00:57.306Z,95822.03
2018-12-29T22:03:23.293Z,95824.41
2018-12-29T22:05:49.264Z,95816.47
2018-12-29T22:08:15.332Z,95819.69
2018-12-29T22:10:41.310Z,95816.53
2018-12-29T22:13:07.301Z,95812.38
2018-12-29T22:15:33.315Z,95814.13
2018-12-29T22:17:59.336Z,95815.80
2018-12-29T22:20:33.091Z,95810.47
2018-12-29T22:22:51.347Z,95803.05
2018-12-29T22:25:17.314Z,95797.34
2018-12-29T22:27:43.307Z,95791.06
2018-12-29T22:30:09.317Z,95790.68
2018-12-29T22:32:35.323Z,95788.82
2018-12-29T22:35:01.294Z,95789.24
2018-12-29T22:37:27.322Z,95782.27
2018-12-29T22:39:53.322Z,95782.77
2018-12-29T22:42:19.310Z,95781.17
2018-12-29T22:44:45.342Z,95782.27
2018-12-29T22:47:11.300Z,95777.94
2018-12-29T22:49:37.315Z,95774.10
2018-12-29T22:52:03.364Z,95772.42
2018-12-29T22:54:29.298Z,95770.60
2018-12-29T22:56:55.280Z,95767.33
2018-12-29T22:59:21.262Z,95769.77
2018-12-29T23:01:47.265Z,95761.05
2018-12-29T23:04:13.243Z,95753.48
2018-12-29T23:06:39.254Z,95760.55
2018-12-29T23:09:05.241Z,95757.47
2018-12-29T23:11:31.233Z,95756.06
2018-12-29T23:13:57.252Z,95749.06
2018-12-29T23:16:23.235Z,95747.55
2018-12-29T23:18:49.230Z,95743.38
2018-12-29T23:21:15.243Z,95742.75
2018-12-29T23:23:41.206Z,95741.60
2018-12-29T23:26:07.230Z,95743.02
2018-12-29T23:28:33.238Z,95741.19
2018-12-29T23:30:59.219Z,95739.75
2018-12-29T23:33:25.185Z,95740.16
2018-12-29T23:35:51.252Z,95738.47
2018-12-29T23:38:17.256Z,95743.42
2018-12-29T23:40:43.256Z,95747.92
2018-12-29T23:43:09.238Z,95745.86
2018-12-29T23:45:35.281Z,95747.92
2018-12-29T23:48:01.278Z,95750.34
2018-12-29T23:50:27.257Z,95737.03
2018-12-29T23:52:53.276Z,95739.69
2018-12-29T23:55:19.269Z,95739.92
2018-12-29T23:57:45.266Z,95742.17
